Time;durP1;ratioP1;P1;durP2;ratioP2;P2;SDS_P1;SDS_P2;PMS_P1;PMS_P2;Temp;Humidity;BMP_temperature;BMP_pressure;BME280_temperature;BME280_humidity;BME280_pressure;Samples;Min_cycle;Max_cycle;Signal;HPM_P1;HPM_P2
2021/04/12 00:00:23;;;;;;;8.93;2.20;;;3.70;99.90;;;;;;5048528;28;20115;-57
2021/04/12 00:02:51;;;;;;;5.55;2.58;;;3.70;99.90;;;;;;5043214;28;20362;-57
2021/04/12 00:05:27;;;;;;;4.07;2.10;;;3.70;99.90;;;;;;5046703;28;20383;-57
2021/04/12 00:08:19;;;;;;;15.02;3.20;;;3.70;99.90;;;;;;5050302;28;20033;-58
2021/04/12 00:11:01;;;;;;;11.20;3.95;;;3.60;99.90;;;;;;5055572;28;20037;-57
2021/04/12 00:13:38;;;;;;;4.75;2.10;;;3.70;99.90;;;;;;5043580;28;20059;-57
2021/04/12 00:16:25;;;;;;;6.90;3.70;;;3.60;99.90;;;;;;5043639;28;20024;-58
2021/04/12 00:18:55;;;;;;;13.32;3.13;;;3.60;99.90;;;;;;5042583;28;20029;-58
2021/04/12 00:21:39;;;;;;;7.60;2.40;;;3.60;99.90;;;;;;5048039;28;20109;-58
2021/04/12 00:24:14;;;;;;;7.05;2.30;;;3.60;99.90;;;;;;5058308;28;20075;-58
2021/04/12 00:26:54;;;;;;;5.70;2.60;;;3.60;99.90;;;;;;5054033;28;20025;-58
2021/04/12 00:29:27;;;;;;;8.55;2.15;;;3.60;99.90;;;;;;5043550;28;20036;-57
2021/04/12 00:31:55;;;;;;;7.50;3.03;;;3.60;99.90;;;;;;5048788;28;20022;-58
2021/04/12 00:34:37;;;;;;;6.20;2.60;;;3.60;99.90;;;;;;5053195;28;20037;-57
2021/04/12 00:37:27;;;;;;;8.80;3.05;;;3.60;99.90;;;;;;5052101;28;20148;-56
2021/04/12 00:40:15;;;;;;;6.00;2.42;;;3.50;99.90;;;;;;5057668;28;20032;-56
2021/04/12 00:43:05;;;;;;;8.25;3.10;;;3.50;99.90;;;;;;5052507;28;20025;-57
2021/04/12 00:45:35;;;;;;;14.38;2.90;;;3.50;99.90;;;;;;5050479;28;20585;-55
2021/04/12 00:48:07;;;;;;;8.52;2.33;;;3.50;99.90;;;;;;5044218;28;20036;-57
2021/04/12 00:50:51;;;;;;;6.95;2.40;;;3.50;99.90;;;;;;5052701;28;20056;-58
2021/04/12 00:53:39;;;;;;;11.95;2.50;;;3.50;99.90;;;;;;5061430;28;20029;-58
2021/04/12 00:56:34;;;;;;;6.55;2.55;;;3.60;99.90;;;;;;5051819;28;20138;-57
2021/04/12 00:59:21;;;;;;;4.03;2.30;;;3.60;99.90;;;;;;5050868;28;20399;-57
2021/04/12 01:02:05;;;;;;;9.98;3.72;;;3.50;99.90;;;;;;5051424;28;20025;-57
2021/04/12 01:04:40;;;;;;;9.32;2.90;;;3.40;99.90;;;;;;5056583;28;20017;-57
2021/04/12 01:07:40;;;;;;;9.85;2.92;;;3.20;99.90;;;;;;5042430;28;20041;-58
2021/04/12 01:10:33;;;;;;;14.18;3.55;;;3.00;99.90;;;;;;5049799;28;20123;-57
2021/04/12 01:13:33;;;;;;;10.38;3.40;;;2.70;99.90;;;;;;5048612;28;20024;-57
2021/04/12 01:16:26;;;;;;;8.95;3.10;;;2.60;99.90;;;;;;5049739;28;20037;-57
2021/04/12 01:19:29;;;;;;;8.30;3.45;;;2.50;99.90;;;;;;5049037;28;20755;-58
2021/04/12 01:22:21;;;;;;;11.45;4.00;;;2.60;99.90;;;;;;5048088;28;20341;-58
2021/04/12 01:25:02;;;;;;;13.52;3.33;;;2.60;99.90;;;;;;5050297;28;20388;-58
2021/04/12 01:27:51;;;;;;;7.28;3.30;;;2.50;99.90;;;;;;5054012;28;20386;-58
2021/04/12 01:30:56;;;;;;;12.85;4.15;;;2.40;99.90;;;;;;5047841;28;20025;-57
2021/04/12 01:34:13;;;;;;;13.52;4.15;;;2.30;99.90;;;;;;5049348;28;20017;-56
2021/04/12 01:36:57;;;;;;;21.15;7.45;;;2.30;99.90;;;;;;5049038;28;20037;-55
2021/04/12 01:39:29;;;;;;;19.77;4.93;;;2.20;99.90;;;;;;5045855;28;20391;-56
2021/04/12 01:42:01;;;;;;;15.95;5.40;;;2.30;99.90;;;;;;5051574;28;20114;-56
2021/04/12 01:44:39;;;;;;;12.02;4.85;;;2.30;99.90;;;;;;5048084;28;20035;-55
2021/04/12 01:47:32;;;;;;;19.85;6.18;;;2.30;99.90;;;;;;5044178;28;20479;-54
2021/04/12 01:50:36;;;;;;;14.60;4.95;;;2.40;99.90;;;;;;5050921;28;20043;-57
2021/04/12 01:53:20;;;;;;;15.93;5.93;;;2.40;99.90;;;;;;5043324;28;20458;-56
2021/04/12 01:56:17;;;;;;;13.30;4.97;;;2.40;99.90;;;;;;5047664;28;20710;-57
2021/04/12 01:58:53;;;;;;;14.45;5.20;;;2.40;99.90;;;;;;5045249;28;20036;-58
2021/04/12 02:01:37;;;;;;;12.40;6.28;;;2.50;99.90;;;;;;5045755;28;20617;-58
2021/04/12 02:04:26;;;;;;;26.85;6.50;;;2.50;99.90;;;;;;5053931;28;20033;-58
2021/04/12 02:07:20;;;;;;;12.35;5.57;;;2.50;99.90;;;;;;5049947;28;20059;-57
2021/04/12 02:10:18;;;;;;;15.43;6.57;;;2.50;99.90;;;;;;5060603;28;20021;-57
2021/04/12 02:12:50;;;;;;;16.17;6.90;;;2.50;99.90;;;;;;5048932;28;20025;-57
2021/04/12 02:15:30;;;;;;;11.52;6.15;;;2.60;99.90;;;;;;5045968;28;20078;-58
2021/04/12 02:18:41;;;;;;;19.98;7.68;;;2.60;99.90;;;;;;5051644;28;20029;-58
2021/04/12 02:21:49;;;;;;;18.58;7.95;;;2.50;99.90;;;;;;5054627;22;20499;-59
2021/04/12 02:24:37;;;;;;;11.68;7.05;;;2.50;99.90;;;;;;5039126;28;20506;-59
2021/04/12 02:27:12;;;;;;;20.95;6.75;;;2.50;99.90;;;;;;5042157;28;20072;-59
2021/04/12 02:29:54;;;;;;;18.38;8.82;;;2.50;99.90;;;;;;5044189;28;20102;-62
2021/04/12 02:33:02;;;;;;;17.98;9.70;;;2.50;99.90;;;;;;5041960;28;20040;-59
2021/04/12 02:35:36;;;;;;;15.85;7.68;;;2.60;99.90;;;;;;5041833;28;20028;-58
2021/04/12 02:38:25;;;;;;;16.70;8.45;;;2.50;99.90;;;;;;5043019;28;20044;-62
2021/04/12 02:41:24;;;;;;;16.65;8.55;;;2.50;99.90;;;;;;5043789;28;20522;-59
2021/04/12 02:44:27;;;;;;;20.63;9.95;;;2.50;99.90;;;;;;5044210;28;20486;-62
2021/04/12 02:47:11;;;;;;;19.23;9.93;;;2.50;99.90;;;;;;5042008;28;20033;-62
2021/04/12 02:50:00;;;;;;;18.38;9.73;;;2.50;99.90;;;;;;5047587;28;20025;-61
2021/04/12 02:53:03;;;;;;;21.55;10.32;;;2.50;99.90;;;;;;5046121;28;20033;-62
2021/04/12 02:55:59;;;;;;;21.00;10.30;;;2.50;99.90;;;;;;5049140;28;20028;-61
2021/04/12 02:58:51;;;;;;;16.13;9.55;;;2.50;99.90;;;;;;5045876;28;20096;-61
2021/04/12 03:01:28;;;;;;;19.17;10.40;;;2.60;99.90;;;;;;5050135;28;20025;-62
2021/04/12 03:04:01;;;;;;;23.88;9.70;;;2.50;99.90;;;;;;5050509;28;20025;-61
2021/04/12 03:06:54;;;;;;;25.33;10.80;;;2.50;99.90;;;;;;5043248;28;20758;-60
2021/04/12 03:10:01;;;;;;;19.48;9.48;;;2.50;99.90;;;;;;5047159;28;20115;-60
2021/04/12 03:12:51;;;;;;;19.55;9.82;;;2.50;99.90;;;;;;5041295;28;20098;-60
2021/04/12 03:15:37;;;;;;;17.83;8.60;;;2.50;99.90;;;;;;5048313;28;20079;-59
2021/04/12 03:18:27;;;;;;;20.52;8.57;;;2.50;99.90;;;;;;5045543;28;20029;-61
2021/04/12 03:20:55;;;;;;;20.30;8.20;;;2.50;99.90;;;;;;5039939;28;20021;-60
2021/04/12 03:23:53;;;;;;;19.52;9.35;;;2.50;99.90;;;;;;5049533;28;20079;-61
2021/04/12 03:26:40;;;;;;;20.08;7.65;;;2.50;99.90;;;;;;5034883;28;20041;-60
2021/04/12 03:29:24;;;;;;;14.85;7.95;;;2.50;99.90;;;;;;5045455;28;20057;-61
2021/04/12 03:32:12;;;;;;;17.90;7.97;;;2.50;99.90;;;;;;5038765;28;20041;-61
2021/04/12 03:34:59;;;;;;;22.00;7.40;;;2.50;99.90;;;;;;5050102;28;20606;-62
2021/04/12 03:37:50;;;;;;;13.85;6.88;;;2.50;99.90;;;;;;5049735;28;20032;-60
2021/04/12 03:40:32;;;;;;;13.98;7.50;;;2.50;99.90;;;;;;5044974;28;20029;-60
2021/04/12 03:43:04;;;;;;;13.25;7.35;;;2.50;99.90;;;;;;5060352;28;20044;-60
2021/04/12 03:45:41;;;;;;;10.80;6.35;;;2.40;99.90;;;;;;5052965;28;20414;-61
2021/04/12 03:48:21;;;;;;;24.38;8.45;;;2.40;99.90;;;;;;5043801;28;20032;-60
2021/04/12 03:51:23;;;;;;;11.98;7.15;;;2.40;99.90;;;;;;5050894;28;20056;-60
2021/04/12 03:54:10;;;;;;;13.98;6.82;;;2.40;99.90;;;;;;5046527;28;20094;-60
2021/04/12 03:57:05;;;;;;;17.92;7.47;;;2.40;99.90;;;;;;5045051;28;20033;-61
2021/04/12 03:59:38;;;;;;;12.77;7.18;;;2.40;99.90;;;;;;5055257;28;20021;-60
2021/04/12 04:02:33;;;;;;;15.73;7.32;;;2.40;99.90;;;;;;5042323;28;20029;-59
2021/04/12 04:05:17;;;;;;;18.48;8.00;;;2.20;99.90;;;;;;5047530;28;20025;-61
2021/04/12 04:08:03;;;;;;;19.08;7.78;;;2.30;99.90;;;;;;5040311;28;20029;-62
2021/04/12 04:10:37;;;;;;;19.08;7.65;;;2.30;99.90;;;;;;5049896;28;20048;-62
2021/04/12 04:13:28;;;;;;;20.33;6.72;;;2.20;99.90;;;;;;5045235;28;20021;-62
2021/04/12 04:16:27;;;;;;;14.07;7.18;;;2.30;99.90;;;;;;5046795;28;20120;-61
2021/04/12 04:19:14;;;;;;;21.15;7.05;;;2.30;99.90;;;;;;5044421;28;20842;-61
2021/04/12 04:22:01;;;;;;;16.08;7.18;;;2.20;99.90;;;;;;5039098;28;20021;-62
2021/04/12 04:24:52;;;;;;;12.90;7.07;;;2.20;99.90;;;;;;5049548;28;20025;-60
2021/04/12 04:27:55;;;;;;;14.40;7.72;;;2.20;99.90;;;;;;5046999;28;20021;-61
2021/04/12 04:30:42;;;;;;;18.80;7.28;;;2.20;99.90;;;;;;5040446;28;20060;-62
2021/04/12 04:33:49;;;;;;;17.38;7.07;;;2.20;99.90;;;;;;5031430;28;20037;-59
2021/04/12 04:36:36;;;;;;;11.77;6.55;;;2.10;99.90;;;;;;5048044;28;20029;-61
2021/04/12 04:39:27;;;;;;;16.27;7.03;;;2.10;99.90;;;;;;5049350;28;20521;-59
2021/04/12 04:42:18;;;;;;;17.23;7.07;;;2.10;99.90;;;;;;5051533;28;20021;-61
2021/04/12 04:45:04;;;;;;;14.57;6.82;;;2.10;99.90;;;;;;5054891;28;20478;-59
2021/04/12 04:47:50;;;;;;;18.42;6.65;;;2.10;99.90;;;;;;5053076;28;20107;-61
2021/04/12 04:50:39;;;;;;;18.73;8.50;;;2.10;99.90;;;;;;5048710;28;20032;-62
2021/04/12 04:53:20;;;;;;;16.70;7.65;;;2.10;99.90;;;;;;5049017;28;20540;-58
2021/04/12 04:55:53;;;;;;;17.73;8.25;;;2.10;99.90;;;;;;5045362;28;20057;-61
2021/04/12 04:58:46;;;;;;;18.08;7.57;;;2.00;99.90;;;;;;5043038;28;20031;-60
2021/04/12 05:01:36;;;;;;;35.53;9.90;;;2.00;99.90;;;;;;5045381;28;20020;-60
2021/04/12 05:04:23;;;;;;;26.08;9.65;;;2.00;99.90;;;;;;5043306;28;20026;-60
2021/04/12 05:07:00;;;;;;;18.33;8.68;;;2.00;99.90;;;;;;5041207;28;20102;-61
2021/04/12 05:10:06;;;;;;;16.40;9.63;;;2.00;99.90;;;;;;5047988;28;20025;-58
2021/04/12 05:12:55;;;;;;;25.55;9.75;;;2.00;99.90;;;;;;5056107;28;20031;-61
2021/04/12 05:15:44;;;;;;;21.02;10.13;;;2.00;99.90;;;;;;5051801;28;20584;-61
2021/04/12 05:18:48;;;;;;;25.00;10.32;;;2.00;99.90;;;;;;5032261;28;20104;-59
2021/04/12 05:21:47;;;;;;;20.45;10.43;;;2.00;99.90;;;;;;5047188;28;20116;-60
2021/04/12 05:24:48;;;;;;;23.30;11.15;;;2.00;99.90;;;;;;5052564;28;20041;-60
2021/04/12 05:27:32;;;;;;;22.25;11.15;;;2.00;99.90;;;;;;5044512;28;20055;-60
2021/04/12 05:30:13;;;;;;;18.25;10.50;;;2.10;99.90;;;;;;5044855;28;20061;-61
2021/04/12 05:33:11;;;;;;;23.23;11.65;;;2.10;99.90;;;;;;5049381;28;20028;-59
2021/04/12 05:35:59;;;;;;;24.55;11.60;;;2.10;99.90;;;;;;5010524;28;20117;-58
2021/04/12 05:38:46;;;;;;;23.38;11.85;;;2.10;99.90;;;;;;5057286;28;20070;-61
2021/04/12 05:41:50;;;;;;;23.65;12.15;;;2.20;99.90;;;;;;5029693;28;20021;-60
2021/04/12 05:44:33;;;;;;;28.73;12.40;;;2.30;99.90;;;;;;5046389;28;20067;-59
2021/04/12 05:47:19;;;;;;;27.55;12.25;;;2.30;99.90;;;;;;5045448;28;20040;-59
2021/04/12 05:50:11;;;;;;;26.25;11.95;;;2.50;99.90;;;;;;5041873;28;20037;-57
2021/04/12 05:53:16;;;;;;;25.98;12.82;;;2.60;99.90;;;;;;5047332;28;20397;-59
2021/04/12 05:55:47;;;;;;;33.58;15.15;;;2.70;99.90;;;;;;5044484;28;20086;-60
2021/04/12 05:58:39;;;;;;;24.42;12.93;;;2.80;99.90;;;;;;5053538;28;20017;-60
2021/04/12 06:01:26;;;;;;;30.08;13.30;;;2.90;99.90;;;;;;5015876;28;20037;-57
2021/04/12 06:04:19;;;;;;;33.90;16.27;;;3.00;99.90;;;;;;5043693;28;20025;-62
2021/04/12 06:06:57;;;;;;;28.73;13.55;;;3.10;99.90;;;;;;5049572;28;20029;-60
2021/04/12 06:10:02;;;;;;;32.45;13.65;;;3.20;99.90;;;;;;5048375;28;20029;-61
2021/04/12 06:13:02;;;;;;;32.17;15.38;;;3.20;99.90;;;;;;4980378;28;20175;-60
2021/04/12 06:16:06;;;;;;;42.45;15.93;;;3.40;99.90;;;;;;5048351;28;20039;-60
2021/04/12 06:19:26;;;;;;;39.75;18.75;;;3.40;99.90;;;;;;5054465;28;20495;-60
2021/04/12 06:22:31;;;;;;;45.08;17.45;;;3.30;99.90;;;;;;5024167;28;20088;-61
2021/04/12 06:25:15;;;;;;;48.00;17.63;;;3.40;99.90;;;;;;5048817;28;20143;-59
2021/04/12 06:28:21;;;;;;;42.58;17.67;;;3.40;99.90;;;;;;5046049;28;20025;-59
2021/04/12 06:31:25;;;;;;;38.20;15.27;;;3.60;99.90;;;;;;5045193;28;20033;-58
2021/04/12 06:33:53;;;;;;;30.65;13.68;;;3.50;99.90;;;;;;5026445;28;20021;-60
2021/04/12 06:36:45;;;;;;;29.92;13.98;;;3.60;99.90;;;;;;5052848;28;20111;-58
2021/04/12 06:39:37;;;;;;;23.77;13.68;;;3.50;99.90;;;;;;5045456;28;20041;-60
2021/04/12 06:42:20;;;;;;;29.65;12.23;;;3.50;99.90;;;;;;5045150;28;20017;-58
2021/04/12 06:45:24;;;;;;;22.20;13.57;;;3.40;99.90;;;;;;5046858;28;20025;-61
2021/04/12 06:48:19;;;;;;;27.60;13.25;;;3.40;99.90;;;;;;5046918;28;20033;-60
2021/04/12 06:51:41;;;;;;;29.55;14.23;;;3.50;99.90;;;;;;5047695;28;20103;-60
2021/04/12 06:54:42;;;;;;;23.77;12.57;;;3.50;99.90;;;;;;4965314;28;20030;-60
2021/04/12 06:57:26;;;;;;;31.85;14.35;;;3.30;99.90;;;;;;4963210;28;20531;-60
2021/04/12 07:00:10;;;;;;;21.95;13.20;;;3.40;99.90;;;;;;5030122;28;20120;-59
2021/04/12 07:02:54;;;;;;;21.67;10.43;;;3.50;99.90;;;;;;5042319;28;20037;-60
2021/04/12 07:06:16;;;;;;;33.33;13.98;;;3.50;99.90;;;;;;5042769;28;20230;-56
2021/04/12 07:08:56;;;;;;;26.02;13.73;;;3.60;99.90;;;;;;4962859;28;20046;-58
2021/04/12 07:11:42;;;;;;;23.02;12.52;;;3.60;99.90;;;;;;4962684;28;20031;-60
2021/04/12 07:14:46;;;;;;;29.40;14.30;;;3.70;99.90;;;;;;5027726;28;20041;-57
2021/04/12 07:17:19;;;;;;;27.65;12.73;;;3.70;99.90;;;;;;5043135;28;20474;-58
2021/04/12 07:19:59;;;;;;;18.25;12.73;;;3.80;99.90;;;;;;5048262;28;20040;-60
2021/04/12 07:23:02;;;;;;;30.05;13.52;;;3.90;99.90;;;;;;5041037;28;20021;-60
2021/04/12 07:25:58;;;;;;;26.27;13.73;;;3.90;99.90;;;;;;5048911;28;20486;-59
2021/04/12 07:29:01;;;;;;;35.88;13.80;;;4.00;99.90;;;;;;5044880;28;20029;-58
2021/04/12 07:32:01;;;;;;;30.48;12.90;;;4.10;99.90;;;;;;5046511;28;20025;-59
2021/04/12 07:34:48;;;;;;;25.98;12.77;;;4.10;99.90;;;;;;5010029;28;20091;-58
2021/04/12 07:37:37;;;;;;;24.60;12.90;;;4.10;99.90;;;;;;5044941;28;20513;-60
2021/04/12 07:40:30;;;;;;;25.88;14.50;;;3.90;99.90;;;;;;5046050;28;20079;-60
2021/04/12 07:43:14;;;;;;;23.70;13.93;;;4.00;99.90;;;;;;5046886;28;20851;-60
2021/04/12 07:46:15;;;;;;;23.80;11.60;;;4.10;99.90;;;;;;5042779;28;20124;-61
2021/04/12 07:48:49;;;;;;;26.52;14.88;;;4.20;99.90;;;;;;5044606;28;20025;-56
2021/04/12 07:51:26;;;;;;;37.40;14.10;;;4.40;99.90;;;;;;5041429;28;20028;-59
2021/04/12 07:54:09;;;;;;;26.83;13.32;;;4.60;99.90;;;;;;5042758;28;20071;-57
2021/04/12 07:56:47;;;;;;;24.60;14.38;;;4.70;99.90;;;;;;5041403;28;20622;-59
2021/04/12 07:59:43;;;;;;;32.97;17.10;;;4.70;99.90;;;;;;5042904;28;20025;-58
2021/04/12 08:02:33;;;;;;;26.48;16.48;;;4.80;99.90;;;;;;5043923;28;20028;-58
2021/04/12 08:05:41;;;;;;;29.95;16.80;;;4.80;99.90;;;;;;5039867;28;20522;-56
2021/04/12 08:08:27;;;;;;;25.63;15.77;;;4.80;99.90;;;;;;5047100;28;20029;-60
2021/04/12 08:11:08;;;;;;;27.27;15.52;;;4.70;99.90;;;;;;5046715;28;20494;-57
2021/04/12 08:14:10;;;;;;;27.08;15.93;;;4.70;99.90;;;;;;5040194;28;20436;-57
2021/04/12 08:16:57;;;;;;;30.05;16.15;;;4.50;99.90;;;;;;5042156;28;20498;-55
2021/04/12 08:19:44;;;;;;;30.27;18.90;;;4.50;99.90;;;;;;5053817;28;20020;-59
2021/04/12 08:22:43;;;;;;;31.08;19.20;;;4.60;99.90;;;;;;5061499;22;20044;-56
2021/04/12 08:25:15;;;;;;;27.17;17.45;;;4.70;99.90;;;;;;5041061;28;20437;-57
2021/04/12 08:28:15;;;;;;;24.48;14.30;;;4.70;99.90;;;;;;5025629;28;20613;-57
2021/04/12 08:31:09;;;;;;;22.98;13.73;;;4.60;99.90;;;;;;5049511;28;20522;-57
2021/04/12 08:34:11;;;;;;;14.93;6.60;;;4.70;99.90;;;;;;5047651;28;20013;-55
2021/04/12 08:37:11;;;;;;;8.88;6.07;;;4.40;99.90;;;;;;5050738;28;20487;-57
2021/04/12 08:40:15;;;;;;;12.07;6.22;;;4.50;99.90;;;;;;5050019;28;20047;-56
2021/04/12 08:42:56;;;;;;;10.48;5.50;;;4.40;99.90;;;;;;5042519;28;20101;-55
2021/04/12 08:45:59;;;;;;;11.63;6.63;;;4.10;99.90;;;;;;5050129;28;20033;-57
2021/04/12 08:48:52;;;;;;;11.05;6.05;;;4.10;99.90;;;;;;5029106;28;20033;-59
2021/04/12 08:51:40;;;;;;;14.57;6.97;;;4.40;99.90;;;;;;5046720;28;20151;-57
2021/04/12 08:54:06;;;;;;;11.05;4.45;;;4.50;99.90;;;;;;5049831;28;20046;-57
2021/04/12 08:57:03;;;;;;;9.25;5.85;;;4.80;99.90;;;;;;5049311;28;20237;-56
2021/04/12 09:00:02;;;;;;;10.30;6.28;;;5.10;99.90;;;;;;5048637;28;20037;-57
2021/04/12 09:02:49;;;;;;;10.00;7.45;;;5.30;99.90;;;;;;5042693;28;20029;-57
2021/04/12 09:05:40;;;;;;;13.00;8.00;;;5.40;99.90;;;;;;5052675;28;20078;-55
2021/04/12 09:08:20;;;;;;;18.45;9.48;;;5.50;99.90;;;;;;5049516;28;20027;-58
2021/04/12 09:10:48;;;;;;;16.10;10.32;;;5.50;99.90;;;;;;5053119;28;20033;-59
2021/04/12 09:13:44;;;;;;;21.85;13.48;;;5.70;99.90;;;;;;5056465;28;20149;-57
2021/04/12 09:16:37;;;;;;;22.63;11.55;;;5.80;99.90;;;;;;5046707;28;20100;-57
2021/04/12 09:19:26;;;;;;;21.30;12.40;;;6.00;99.90;;;;;;5061243;28;20020;-57
2021/04/12 09:22:24;;;;;;;18.42;10.25;;;6.10;99.90;;;;;;5049881;28;20048;-57
2021/04/12 09:25:07;;;;;;;16.77;9.77;;;6.00;99.90;;;;;;5055086;28;20049;-57
2021/04/12 09:28:08;;;;;;;13.82;9.55;;;6.10;99.90;;;;;;5045477;28;20025;-57
2021/04/12 09:30:55;;;;;;;17.48;10.25;;;6.00;99.90;;;;;;5040587;28;20037;-57
2021/04/12 09:33:42;;;;;;;15.70;9.07;;;6.00;99.90;;;;;;5046586;28;20506;-57
2021/04/12 09:36:16;;;;;;;16.27;10.55;;;6.00;99.90;;;;;;5049319;28;20029;-57
2021/04/12 09:39:02;;;;;;;18.40;9.98;;;6.00;99.90;;;;;;5051902;28;20029;-55
2021/04/12 09:41:45;;;;;;;16.25;9.65;;;5.80;99.90;;;;;;5044466;28;20026;-56
2021/04/12 09:44:58;;;;;;;11.90;8.38;;;5.90;99.90;;;;;;5051027;28;20103;-57
2021/04/12 09:47:41;;;;;;;12.13;7.13;;;6.00;99.90;;;;;;5052354;28;20502;-57
2021/04/12 09:50:31;;;;;;;13.80;8.18;;;6.20;99.90;;;;;;5054659;28;20037;-58
2021/04/12 09:53:16;;;;;;;12.85;7.88;;;6.10;99.90;;;;;;5049318;28;20029;-53
2021/04/12 09:56:10;;;;;;;13.20;8.23;;;5.90;99.90;;;;;;5058789;28;20032;-58
2021/04/12 09:58:47;;;;;;;12.67;7.93;;;6.10;99.90;;;;;;5050887;28;20441;-56
2021/04/12 10:02:00;;;;;;;17.13;8.85;;;6.50;99.90;;;;;;5049928;28;20029;-57
2021/04/12 10:05:15;;;;;;;14.40;8.73;;;7.00;99.90;;;;;;4981932;28;20037;-57
2021/04/12 10:07:53;;;;;;;16.58;6.82;;;7.30;99.90;;;;;;4984964;28;20030;-58
2021/04/12 10:10:32;;;;;;;16.17;8.25;;;7.50;99.90;;;;;;5050237;28;20397;-58
2021/04/12 10:13:16;;;;;;;16.33;8.20;;;7.50;99.90;;;;;;5052954;28;20056;-58
2021/04/12 10:15:58;;;;;;;14.63;8.35;;;7.50;99.90;;;;;;5044626;28;20032;-58
2021/04/12 10:18:41;;;;;;;13.82;8.95;;;7.40;99.90;;;;;;5045784;28;20123;-57
2021/04/12 10:21:09;;;;;;;15.50;8.60;;;7.60;99.90;;;;;;5048601;28;20095;-58
2021/04/12 10:23:37;;;;;;;13.15;7.35;;;7.50;99.90;;;;;;5050952;28;20368;-57
2021/04/12 10:26:05;;;;;;;18.15;7.53;;;8.10;99.90;;;;;;5047356;28;20117;-58
2021/04/12 10:28:57;;;;;;;11.18;7.35;;;8.30;99.90;;;;;;5049938;28;20036;-59
2021/04/12 10:31:31;;;;;;;11.75;7.30;;;7.50;99.90;;;;;;5048307;28;20112;-57
2021/04/12 10:34:17;;;;;;;10.63;7.07;;;7.70;99.90;;;;;;5050662;28;20032;-57
2021/04/12 10:37:30;;;;;;;15.55;7.00;;;7.70;99.90;;;;;;5054455;28;20021;-57
2021/04/12 10:40:09;;;;;;;10.27;6.90;;;8.10;99.90;;;;;;4975545;28;20027;-57
2021/04/12 10:42:43;;;;;;;11.25;6.78;;;8.50;99.90;;;;;;5039327;28;20044;-55
2021/04/12 10:45:14;;;;;;;10.90;6.07;;;8.80;99.90;;;;;;5045408;28;20100;-57
2021/04/12 10:47:45;;;;;;;8.40;6.35;;;8.40;99.90;;;;;;5040030;28;20071;-56
2021/04/12 10:50:20;;;;;;;10.77;6.32;;;8.00;99.90;;;;;;5053004;28;20029;-56
2021/04/12 10:53:16;;;;;;;7.55;5.47;;;8.20;99.90;;;;;;5053056;28;20566;-56
2021/04/12 10:55:47;;;;;;;7.45;5.35;;;8.00;99.90;;;;;;5043804;28;20068;-58
2021/04/12 10:58:33;;;;;;;8.57;5.00;;;8.40;99.90;;;;;;5052253;28;20386;-57
2021/04/12 11:01:26;;;;;;;9.77;4.40;;;8.60;99.90;;;;;;5032999;28;20398;-56
2021/04/12 11:04:02;;;;;;;15.45;4.97;;;8.90;99.90;;;;;;5046135;28;20036;-58
2021/04/12 11:06:43;;;;;;;6.85;4.30;;;8.90;99.90;;;;;;5027204;28;20029;-58
2021/04/12 11:09:43;;;;;;;7.50;3.85;;;9.00;99.90;;;;;;5042905;28;20061;-55
2021/04/12 11:12:23;;;;;;;7.32;4.25;;;9.20;99.90;;;;;;5046226;28;20024;-55
2021/04/12 11:15:06;;;;;;;7.43;4.65;;;9.60;99.90;;;;;;5043036;28;20105;-55
2021/04/12 11:17:50;;;;;;;6.78;3.67;;;9.40;99.90;;;;;;5047136;28;20025;-55
2021/04/12 11:20:31;;;;;;;5.15;3.50;;;9.10;99.90;;;;;;5040961;28;20101;-56
2021/04/12 11:23:03;;;;;;;7.80;3.90;;;8.80;99.90;;;;;;5046124;28;20048;-57
2021/04/12 11:25:49;;;;;;;4.13;2.95;;;8.60;99.90;;;;;;5048991;28;20033;-58
2021/04/12 11:28:36;;;;;;;4.20;2.40;;;8.70;99.90;;;;;;5041232;28;20559;-58
2021/04/12 11:31:37;;;;;;;7.75;2.78;;;7.50;99.90;;;;;;5038995;28;20044;-58
2021/04/12 11:34:06;;;;;;;3.25;2.40;;;7.10;99.90;;;;;;5045224;28;20521;-60
2021/04/12 11:37:01;;;;;;;12.80;3.03;;;6.80;99.90;;;;;;5044437;28;20037;-55
2021/04/12 11:39:38;;;;;;;4.07;2.40;;;6.50;99.90;;;;;;5045467;28;20017;-57
2021/04/12 11:42:15;;;;;;;2.05;1.52;;;6.20;99.90;;;;;;5040980;28;20091;-57
2021/04/12 11:44:50;;;;;;;4.35;1.88;;;6.00;99.90;;;;;;5047704;28;20017;-55
2021/04/12 11:47:28;;;;;;;5.30;1.52;;;6.20;99.90;;;;;;5024396;28;20795;-58
2021/04/12 11:50:08;;;;;;;2.28;1.13;;;6.70;99.90;;;;;;5050347;28;20029;-57
2021/04/12 11:52:44;;;;;;;4.15;1.42;;;6.90;99.90;;;;;;5042491;28;20079;-56
2021/04/12 11:55:35;;;;;;;4.95;1.52;;;6.70;99.90;;;;;;5042659;28;20091;-54
2021/04/12 11:58:22;;;;;;;5.45;2.08;;;6.50;99.90;;;;;;5038844;28;20053;-58
2021/04/12 12:01:19;;;;;;;8.77;3.25;;;6.50;99.90;;;;;;5038262;28;20033;-57
2021/04/12 12:04:13;;;;;;;8.15;2.90;;;6.70;99.90;;;;;;5044680;28;20036;-58
2021/04/12 12:07:00;;;;;;;12.30;4.80;;;7.00;99.90;;;;;;5047905;28;20528;-58
2021/04/12 12:09:31;;;;;;;9.25;3.13;;;7.50;99.90;;;;;;5044429;28;20037;-58
2021/04/12 12:12:05;;;;;;;3.08;1.80;;;8.10;99.90;;;;;;5044656;28;20025;-57
2021/04/12 12:14:31;;;;;;;7.00;2.33;;;8.40;99.90;;;;;;5043997;28;20090;-58
2021/04/12 12:16:57;;;;;;;6.40;2.10;;;8.40;99.90;;;;;;5041282;28;20666;-57
2021/04/12 12:19:49;;;;;;;4.45;2.00;;;8.50;99.90;;;;;;5044679;28;20021;-59
2021/04/12 12:22:44;;;;;;;4.78;1.60;;;8.80;99.90;;;;;;5045656;28;20071;-58
2021/04/12 12:25:25;;;;;;;2.53;0.90;;;9.10;99.90;;;;;;5048667;28;20017;-55
2021/04/12 12:28:09;;;;;;;4.15;1.00;;;9.10;99.90;;;;;;5043884;28;20079;-57
2021/04/12 12:30:49;;;;;;;5.45;2.05;;;8.90;99.90;;;;;;5049059;28;20521;-55
2021/04/12 12:33:25;;;;;;;5.00;1.85;;;9.40;99.90;;;;;;5040086;28;20026;-57
2021/04/12 12:36:06;;;;;;;2.65;1.67;;;9.50;99.90;;;;;;5050961;28;20029;-57
2021/04/12 12:39:10;;;;;;;5.10;2.13;;;9.00;99.90;;;;;;5049325;28;20021;-56
2021/04/12 12:41:43;;;;;;;7.20;3.73;;;8.30;99.90;;;;;;5044714;28;20013;-58
2021/04/12 12:44:13;;;;;;;3.38;2.67;;;7.80;99.90;;;;;;5042328;28;20279;-57
2021/04/12 12:46:43;;;;;;;2.95;2.42;;;7.70;99.90;;;;;;5047754;28;20033;-58
2021/04/12 12:49:17;;;;;;;5.38;2.42;;;7.60;99.90;;;;;;5048958;28;20636;-57
2021/04/12 12:51:54;;;;;;;4.78;2.40;;;7.90;99.90;;;;;;5051123;28;20071;-55
2021/04/12 12:54:32;;;;;;;3.58;1.50;;;8.20;99.90;;;;;;5048733;28;20041;-57
2021/04/12 12:57:15;;;;;;;9.48;1.58;;;8.30;99.90;;;;;;5047967;28;20144;-56
2021/04/12 12:59:46;;;;;;;5.95;1.67;;;8.30;99.90;;;;;;5044598;28;20017;-58
2021/04/12 13:02:42;;;;;;;2.42;1.27;;;7.90;99.90;;;;;;5035976;28;21835;-57
2021/04/12 13:05:23;;;;;;;6.82;1.77;;;7.70;99.90;;;;;;5027697;28;20110;-55
2021/04/12 13:08:04;;;;;;;2.80;1.15;;;7.60;99.90;;;;;;5043804;28;20498;-58
2021/04/12 13:10:29;;;;;;;4.47;1.48;;;7.70;99.90;;;;;;5051514;28;20565;-53
2021/04/12 13:12:56;;;;;;;3.92;1.30;;;8.10;99.90;;;;;;5052491;28;20100;-57
2021/04/12 13:15:36;;;;;;;2.22;1.50;;;8.50;99.90;;;;;;5042594;28;20026;-56
2021/04/12 13:18:11;;;;;;;4.90;2.22;;;8.60;99.90;;;;;;5042725;28;20044;-58
2021/04/12 13:20:42;;;;;;;4.05;1.48;;;8.70;99.90;;;;;;5041991;28;20060;-57
2021/04/12 13:23:22;;;;;;;7.80;2.03;;;8.30;99.90;;;;;;5047568;28;20017;-58
2021/04/12 13:25:53;;;;;;;4.32;1.77;;;8.40;99.90;;;;;;5042305;28;20029;-56
2021/04/12 13:28:25;;;;;;;3.20;1.98;;;8.70;99.90;;;;;;5047699;28;20020;-58
2021/04/12 13:31:12;;;;;;;5.95;1.75;;;8.40;99.90;;;;;;5043388;28;20104;-58
2021/04/12 13:33:50;;;;;;;3.05;2.08;;;8.40;99.90;;;;;;5042168;28;20053;-58
2021/04/12 13:36:20;;;;;;;5.07;1.98;;;7.80;99.90;;;;;;5046182;28;20459;-57
2021/04/12 13:38:49;;;;;;;3.80;2.35;;;7.70;99.90;;;;;;5044005;28;20060;-57
2021/04/12 13:41:26;;;;;;;5.82;2.45;;;7.20;99.90;;;;;;5027164;28;20379;-57
2021/04/12 13:43:56;;;;;;;6.47;4.03;;;7.40;99.90;;;;;;5048753;28;20029;-58
2021/04/12 13:46:29;;;;;;;5.05;2.10;;;7.80;99.90;;;;;;5055224;28;20036;-57
2021/04/12 13:49:10;;;;;;;7.47;2.88;;;8.20;99.90;;;;;;5044221;28;20040;-58
2021/04/12 13:51:54;;;;;;;6.18;2.53;;;8.40;99.90;;;;;;5050310;28;20055;-58
2021/04/12 13:54:24;;;;;;;8.63;3.17;;;8.40;99.90;;;;;;5046451;28;20046;-58
2021/04/12 13:56:54;;;;;;;7.57;2.95;;;7.90;99.90;;;;;;5041737;28;20526;-57
2021/04/12 13:59:35;;;;;;;3.78;2.88;;;8.30;99.90;;;;;;5043923;28;20099;-54
2021/04/12 14:02:13;;;;;;;8.18;3.50;;;8.40;99.90;;;;;;5025195;28;20025;-54
2021/04/12 14:04:41;;;;;;;5.30;3.40;;;8.40;99.90;;;;;;5048427;28;20025;-56
2021/04/12 14:07:14;;;;;;;3.28;2.47;;;8.50;99.90;;;;;;5044006;28;20036;-57
2021/04/12 14:10:00;;;;;;;6.38;3.15;;;8.40;99.90;;;;;;5044251;28;20126;-58
2021/04/12 14:12:31;;;;;;;3.08;2.72;;;8.70;99.90;;;;;;5048704;28;20052;-57
2021/04/12 14:15:10;;;;;;;3.47;3.15;;;8.90;99.90;;;;;;5039933;28;20025;-57
2021/04/12 14:17:43;;;;;;;5.25;2.72;;;8.90;99.90;;;;;;5045686;28;20025;-58
2021/04/12 14:20:09;;;;;;;16.27;2.83;;;9.20;99.90;;;;;;5054364;28;20027;-58
2021/04/12 14:22:49;;;;;;;3.00;2.70;;;8.90;99.90;;;;;;5063925;22;20130;-57
2021/04/12 14:25:18;;;;;;;3.20;2.67;;;8.10;99.90;;;;;;5028132;28;20010;-56